Country
Station

 

Weather  for  Anderson, Anderson County Airport  -  United States    United States

  
6 °C (43 °F)
    
 
 

Current METAR for Anderson, Anderson County Airport is :

KAND 121456Z AUTO 06011KT 10SM CLR 06/M04 A3061 RMK AO2 SLP366 T00561039 51017

 

This is a report for Anderson, Anderson County Airport - United States.
 
The report was made a moment ago, at 14:56 UTC .
The wind was blowing at a speed of 5.7 meters per second (12.7 miles per hour) from east/northeast (060°).
 
The temperature was 6 °C (43 °F), with a dew-point at -4 °C (25 °F).
The atmospheric pressure was 1037 hPa (30.61 inHg).
The relative humidity was 48.6%.
 
The sky was clear.
 
The overall visibility was 16.1 kilometers (10.0 miles).
 

 
 
 
 

Country :   A   B   C   D   E   F   G   H   I   J   K   L   M   N   O   P   Q   R   S   T   U   V   W   Y   Z

 

Site Info  |  Disclaimer  |  Credits  |  Privacy
Contact us  |  Add to favorites
© 2013-2019 METARs - All rights reserved